sensor_id;sensor_type;location;lat;lon;timestamp;temperature;humidity
63976;DHT22;50167;47.958;21.780;2023-04-03T00:00:37;8.28;63.25
63976;DHT22;50167;47.958;21.780;2023-04-03T00:03:04;8.96;61.31
63976;DHT22;50167;47.958;21.780;2023-04-03T00:05:30;9.59;58.84
63976;DHT22;50167;47.958;21.780;2023-04-03T00:07:56;8.90;60.41
63976;DHT22;50167;47.958;21.780;2023-04-03T00:10:23;8.07;63.09
63976;DHT22;50167;47.958;21.780;2023-04-03T00:12:49;8.62;61.97
63976;DHT22;50167;47.958;21.780;2023-04-03T00:15:16;9.48;59.02
63976;DHT22;50167;47.958;21.780;2023-04-03T00:17:43;8.96;59.96
63976;DHT22;50167;47.958;21.780;2023-04-03T00:20:09;8.15;62.56
63976;DHT22;50167;47.958;21.780;2023-04-03T00:22:36;8.48;62.06
63976;DHT22;50167;47.958;21.780;2023-04-03T00:25:03;9.06;59.71
63976;DHT22;50167;47.958;21.780;2023-04-03T00:27:29;8.83;59.69
63976;DHT22;50167;47.958;21.780;2023-04-03T00:29:56;8.27;61.85
63976;DHT22;50167;47.958;21.780;2023-04-03T00:32:22;8.07;63.11
63976;DHT22;50167;47.958;21.780;2023-04-03T00:34:48;8.64;60.69
63976;DHT22;50167;47.958;21.780;2023-04-03T00:37:14;9.15;58.91
63976;DHT22;50167;47.958;21.780;2023-04-03T00:39:40;8.43;60.65
63976;DHT22;50167;47.958;21.780;2023-04-03T00:42:07;7.83;63.00
63976;DHT22;50167;47.958;21.780;2023-04-03T00:47:08;8.80;60.01
63976;DHT22;50167;47.958;21.780;2023-04-03T00:49:36;8.86;59.47
63976;DHT22;50167;47.958;21.780;2023-04-03T00:52:03;8.21;61.38
63976;DHT22;50167;47.958;21.780;2023-04-03T00:54:33;7.79;63.30
63976;DHT22;50167;47.958;21.780;2023-04-03T00:57:01;8.66;60.87
63976;DHT22;50167;47.958;21.780;2023-04-03T00:59:31;9.34;58.38
63976;DHT22;50167;47.958;21.780;2023-04-03T01:01:58;8.67;59.78
63976;DHT22;50167;47.958;21.780;2023-04-03T01:04:38;7.82;62.63
63976;DHT22;50167;47.958;21.780;2023-04-03T01:07:15;8.29;61.83
63976;DHT22;50167;47.958;21.780;2023-04-03T01:09:42;9.31;58.65
63976;DHT22;50167;47.958;21.780;2023-04-03T01:12:29;8.62;59.70
63976;DHT22;50167;47.958;21.780;2023-04-03T01:15:06;7.77;62.34
63976;DHT22;50167;47.958;21.780;2023-04-03T01:25:55;7.71;62.06
63976;DHT22;50167;47.958;21.780;2023-04-03T01:28:29;7.73;62.63
63976;DHT22;50167;47.958;21.780;2023-04-03T01:34:03;8.59;58.95
63976;DHT22;50167;47.958;21.780;2023-04-03T01:36:31;7.82;61.33
63976;DHT22;50167;47.958;21.780;2023-04-03T01:38:59;7.45;63.04
63976;DHT22;50167;47.958;21.780;2023-04-03T01:41:27;8.46;60.36
63976;DHT22;50167;47.958;21.780;2023-04-03T01:43:54;8.73;58.51
63976;DHT22;50167;47.958;21.780;2023-04-03T01:46:21;8.00;60.70
63976;DHT22;50167;47.958;21.780;2023-04-03T01:48:48;7.36;62.73
63976;DHT22;50167;47.958;21.780;2023-04-03T01:51:14;7.77;62.05
63976;DHT22;50167;47.958;21.780;2023-04-03T01:53:41;8.57;59.19
63976;DHT22;50167;47.958;21.780;2023-04-03T01:56:07;8.48;58.83
63976;DHT22;50167;47.958;21.780;2023-04-03T01:58:34;7.67;61.22
63976;DHT22;50167;47.958;21.780;2023-04-03T02:01:00;7.21;63.17
63976;DHT22;50167;47.958;21.780;2023-04-03T02:03:27;8.03;61.00
63976;DHT22;50167;47.958;21.780;2023-04-03T02:05:53;8.72;58.43
63976;DHT22;50167;47.958;21.780;2023-04-03T02:08:20;8.17;59.52
63976;DHT22;50167;47.958;21.780;2023-04-03T02:10:48;7.39;62.27
63976;DHT22;50167;47.958;21.780;2023-04-03T02:13:16;7.42;62.78
63976;DHT22;50167;47.958;21.780;2023-04-03T02:15:43;8.31;60.07
63976;DHT22;50167;47.958;21.780;2023-04-03T02:18:11;8.46;58.88
63976;DHT22;50167;47.958;21.780;2023-04-03T02:20:38;7.55;61.39
63976;DHT22;50167;47.958;21.780;2023-04-03T02:23:04;7.26;63.14
63976;DHT22;50167;47.958;21.780;2023-04-03T02:25:32;8.24;60.59
63976;DHT22;50167;47.958;21.780;2023-04-03T02:27:58;8.66;58.63
63976;DHT22;50167;47.958;21.780;2023-04-03T02:30:25;7.73;61.02
63976;DHT22;50167;47.958;21.780;2023-04-03T02:32:52;7.22;63.05
63976;DHT22;50167;47.958;21.780;2023-04-03T02:35:19;8.00;60.86
63976;DHT22;50167;47.958;21.780;2023-04-03T02:37:46;8.46;58.74
63976;DHT22;50167;47.958;21.780;2023-04-03T02:40:13;7.79;60.41
63976;DHT22;50167;47.958;21.780;2023-04-03T02:42:39;7.11;62.63
63976;DHT22;50167;47.958;21.780;2023-04-03T02:45:07;7.47;62.18
63976;DHT22;50167;47.958;21.780;2023-04-03T02:47:33;8.29;59.45
63976;DHT22;50167;47.958;21.780;2023-04-03T02:49:59;8.11;59.15
63976;DHT22;50167;47.958;21.780;2023-04-03T02:52:25;7.29;61.51
63976;DHT22;50167;47.958;21.780;2023-04-03T02:54:51;7.03;63.14
63976;DHT22;50167;47.958;21.780;2023-04-03T02:57:18;7.83;60.70
63976;DHT22;50167;47.958;21.780;2023-04-03T02:59:45;8.13;59.12
63976;DHT22;50167;47.958;21.780;2023-04-03T03:02:12;7.60;60.22
63976;DHT22;50167;47.958;21.780;2023-04-03T03:04:38;6.69;63.05
63976;DHT22;50167;47.958;21.780;2023-04-03T03:07:04;7.12;62.47
63976;DHT22;50167;47.958;21.780;2023-04-03T03:09:31;7.77;60.07
63976;DHT22;50167;47.958;21.780;2023-04-03T03:11:57;8.03;58.74
63976;DHT22;50167;47.958;21.780;2023-04-03T03:14:25;7.10;61.61
63976;DHT22;50167;47.958;21.780;2023-04-03T03:16:51;6.87;62.97
63976;DHT22;50167;47.958;21.780;2023-04-03T03:19:18;7.45;60.94
63976;DHT22;50167;47.958;21.780;2023-04-03T03:21:44;7.79;59.68
63976;DHT22;50167;47.958;21.780;2023-04-03T03:24:10;8.04;58.57
63976;DHT22;50167;47.958;21.780;2023-04-03T03:26:38;7.14;61.17
63976;DHT22;50167;47.958;21.780;2023-04-03T03:29:04;6.70;63.41
63976;DHT22;50167;47.958;21.780;2023-04-03T03:31:30;7.63;60.68
63976;DHT22;50167;47.958;21.780;2023-04-03T03:33:57;8.03;58.66
63976;DHT22;50167;47.958;21.780;2023-04-03T03:36:23;7.08;61.34
63976;DHT22;50167;47.958;21.780;2023-04-03T03:38:49;6.63;63.45
63976;DHT22;50167;47.958;21.780;2023-04-03T03:41:15;7.35;61.28
63976;DHT22;50167;47.958;21.780;2023-04-03T03:43:42;7.76;59.82
63976;DHT22;50167;47.958;21.780;2023-04-03T03:46:08;7.77;59.17
63976;DHT22;50167;47.958;21.780;2023-04-03T03:48:34;7.07;61.12
63976;DHT22;50167;47.958;21.780;2023-04-03T03:51:01;6.55;63.55
63976;DHT22;50167;47.958;21.780;2023-04-03T03:53:30;7.55;60.65
63976;DHT22;50167;47.958;21.780;2023-04-03T03:55:57;8.08;58.78
63976;DHT22;50167;47.958;21.780;2023-04-03T03:58:23;7.47;59.85
63976;DHT22;50167;47.958;21.780;2023-04-03T04:00:50;6.69;62.48
63976;DHT22;50167;47.958;21.780;2023-04-03T04:03:16;6.90;62.45
63976;DHT22;50167;47.958;21.780;2023-04-03T04:05:43;7.70;59.80
63976;DHT22;50167;47.958;21.780;2023-04-03T04:08:10;7.98;58.26
63976;DHT22;50167;47.958;21.780;2023-04-03T04:10:39;7.07;61.07
63976;DHT22;50167;47.958;21.780;2023-04-03T04:13:10;6.45;63.40
63976;DHT22;50167;47.958;21.780;2023-04-03T04:15:34;7.15;61.72
63976;DHT22;50167;47.958;21.780;2023-04-03T04:18:00;8.04;59.01
63976;DHT22;50167;47.958;21.780;2023-04-03T04:20:27;7.73;58.74
63976;DHT22;50167;47.958;21.780;2023-04-03T04:22:53;6.87;61.44
63976;DHT22;50167;47.958;21.780;2023-04-03T04:25:20;6.53;63.33
63976;DHT22;50167;47.958;21.780;2023-04-03T04:27:46;7.43;60.41
63976;DHT22;50167;47.958;21.780;2023-04-03T04:30:17;7.80;58.76
63976;DHT22;50167;47.958;21.780;2023-04-03T04:32:45;6.96;60.94
63976;DHT22;50167;47.958;21.780;2023-04-03T04:35:11;6.40;63.20
63976;DHT22;50167;47.958;21.780;2023-04-03T04:37:38;7.22;60.96
63976;DHT22;50167;47.958;21.780;2023-04-03T04:40:05;7.69;59.21
63976;DHT22;50167;47.958;21.780;2023-04-03T04:42:32;7.53;59.07
63976;DHT22;50167;47.958;21.780;2023-04-03T04:44:58;6.75;61.78
63976;DHT22;50167;47.958;21.780;2023-04-03T04:47:28;6.55;63.28
63976;DHT22;50167;47.958;21.780;2023-04-03T04:49:55;7.36;60.83
63976;DHT22;50167;47.958;21.780;2023-04-03T04:52:22;7.89;58.77
63976;DHT22;50167;47.958;21.780;2023-04-03T04:54:48;7.14;60.76
63976;DHT22;50167;47.958;21.780;2023-04-03T04:57:15;6.42;63.40
63976;DHT22;50167;47.958;21.780;2023-04-03T04:59:41;7.22;61.48
63976;DHT22;50167;47.958;21.780;2023-04-03T05:02:08;7.94;58.99
63976;DHT22;50167;47.958;21.780;2023-04-03T05:04:34;7.35;60.10
63976;DHT22;50167;47.958;21.780;2023-04-03T05:07:00;6.52;62.94
63976;DHT22;50167;47.958;21.780;2023-04-03T05:09:27;7.35;61.52
63976;DHT22;50167;47.958;21.780;2023-04-03T05:11:53;8.00;58.66
63976;DHT22;50167;47.958;21.780;2023-04-03T05:14:20;7.31;60.32
63976;DHT22;50167;47.958;21.780;2023-04-03T05:16:46;6.69;62.53
63976;DHT22;50167;47.958;21.780;2023-04-03T05:19:13;7.19;61.58
63976;DHT22;50167;47.958;21.780;2023-04-03T05:21:40;8.01;58.37
63976;DHT22;50167;47.958;21.780;2023-04-03T05:24:07;7.34;59.96
63976;DHT22;50167;47.958;21.780;2023-04-03T05:26:35;6.63;62.26
63976;DHT22;50167;47.958;21.780;2023-04-03T05:29:01;6.59;62.89
63976;DHT22;50167;47.958;21.780;2023-04-03T05:31:27;7.57;59.62
63976;DHT22;50167;47.958;21.780;2023-04-03T05:33:55;7.63;58.76
63976;DHT22;50167;47.958;21.780;2023-04-03T05:36:21;7.03;60.85
63976;DHT22;50167;47.958;21.780;2023-04-03T05:42:48;7.97;58.73
63976;DHT22;50167;47.958;21.780;2023-04-03T05:45:15;7.80;58.37
63976;DHT22;50167;47.958;21.780;2023-04-03T05:51:21;6.63;62.40
63976;DHT22;50167;47.958;21.780;2023-04-03T05:53:44;7.21;61.66
63976;DHT22;50167;47.958;21.780;2023-04-03T05:56:11;8.14;58.01
63976;DHT22;50167;47.958;21.780;2023-04-03T05:58:37;7.80;58.54
63976;DHT22;50167;47.958;21.780;2023-04-03T06:01:04;7.26;60.25
63976;DHT22;50167;47.958;21.780;2023-04-03T06:03:31;6.87;62.07
63976;DHT22;50167;47.958;21.780;2023-04-03T06:05:57;6.91;62.59
63976;DHT22;50167;47.958;21.780;2023-04-03T06:12:23;7.86;58.46
63976;DHT22;50167;47.958;21.780;2023-04-03T06:14:49;7.32;59.53
63976;DHT22;50167;47.958;21.780;2023-04-03T06:17:17;6.97;60.04
63976;DHT22;50167;47.958;21.780;2023-04-03T06:19:45;6.75;61.78
63976;DHT22;50167;47.958;21.780;2023-04-03T06:22:12;6.63;62.13
63976;DHT22;50167;47.958;21.780;2023-04-03T06:24:38;6.53;62.26
63976;DHT22;50167;47.958;21.780;2023-04-03T06:27:05;6.52;62.20
63976;DHT22;50167;47.958;21.780;2023-04-03T06:29:31;6.50;62.70
63976;DHT22;50167;47.958;21.780;2023-04-03T06:31:58;7.59;59.54
63976;DHT22;50167;47.958;21.780;2023-04-03T06:34:24;8.07;57.08
63976;DHT22;50167;47.958;21.780;2023-04-03T06:36:50;7.55;58.01
63976;DHT22;50167;47.958;21.780;2023-04-03T06:39:21;7.24;59.18
63976;DHT22;50167;47.958;21.780;2023-04-03T06:41:49;7.04;59.52
63976;DHT22;50167;47.958;21.780;2023-04-03T06:44:16;6.96;60.22
63976;DHT22;50167;47.958;21.780;2023-04-03T06:46:44;6.94;59.94
63976;DHT22;50167;47.958;21.780;2023-04-03T06:49:10;6.86;60.61
63976;DHT22;50167;47.958;21.780;2023-04-03T06:51:37;6.90;60.89
63976;DHT22;50167;47.958;21.780;2023-04-03T06:54:04;6.94;61.62
63976;DHT22;50167;47.958;21.780;2023-04-03T06:56:32;7.10;59.41
63976;DHT22;50167;47.958;21.780;2023-04-03T06:58:59;7.15;58.30
63976;DHT22;50167;47.958;21.780;2023-04-03T07:01:28;7.15;58.05
63976;DHT22;50167;47.958;21.780;2023-04-03T07:03:55;7.12;58.46
63976;DHT22;50167;47.958;21.780;2023-04-03T07:06:22;7.24;57.71
63976;DHT22;50167;47.958;21.780;2023-04-03T07:08:48;7.21;57.35
63976;DHT22;50167;47.958;21.780;2023-04-03T07:11:16;7.24;57.99
63976;DHT22;50167;47.958;21.780;2023-04-03T07:13:42;7.39;56.48
63976;DHT22;50167;47.958;21.780;2023-04-03T07:16:09;7.45;56.79
63976;DHT22;50167;47.958;21.780;2023-04-03T07:18:36;7.50;56.82
63976;DHT22;50167;47.958;21.780;2023-04-03T07:21:03;7.56;56.66
63976;DHT22;50167;47.958;21.780;2023-04-03T07:23:31;7.70;56.84
63976;DHT22;50167;47.958;21.780;2023-04-03T07:25:57;7.86;56.08
63976;DHT22;50167;47.958;21.780;2023-04-03T07:28:23;7.89;54.19
63976;DHT22;50167;47.958;21.780;2023-04-03T07:30:53;7.79;55.77
63976;DHT22;50167;47.958;21.780;2023-04-03T07:33:22;7.90;54.56
63976;DHT22;50167;47.958;21.780;2023-04-03T07:35:49;7.89;54.33
63976;DHT22;50167;47.958;21.780;2023-04-03T07:38:15;7.96;54.30
63976;DHT22;50167;47.958;21.780;2023-04-03T07:40:50;7.96;53.94
63976;DHT22;50167;47.958;21.780;2023-04-03T07:43:19;7.87;54.44
63976;DHT22;50167;47.958;21.780;2023-04-03T07:45:47;7.93;55.21
63976;DHT22;50167;47.958;21.780;2023-04-03T07:48:24;8.10;54.04
63976;DHT22;50167;47.958;21.780;2023-04-03T07:50:47;8.10;54.69
63976;DHT22;50167;47.958;21.780;2023-04-03T07:53:13;8.29;53.41
63976;DHT22;50167;47.958;21.780;2023-04-03T07:55:40;8.35;52.60
63976;DHT22;50167;47.958;21.780;2023-04-03T07:58:16;8.27;52.34
63976;DHT22;50167;47.958;21.780;2023-04-03T08:00:44;8.20;52.47
63976;DHT22;50167;47.958;21.780;2023-04-03T08:03:11;8.21;52.14
63976;DHT22;50167;47.958;21.780;2023-04-03T08:05:44;8.24;52.60
63976;DHT22;50167;47.958;21.780;2023-04-03T08:08:13;8.25;52.66
63976;DHT22;50167;47.958;21.780;2023-04-03T08:10:40;8.33;51.94
63976;DHT22;50167;47.958;21.780;2023-04-03T08:13:07;8.33;52.30
63976;DHT22;50167;47.958;21.780;2023-04-03T08:15:34;8.45;51.44
63976;DHT22;50167;47.958;21.780;2023-04-03T08:18:01;8.42;52.53
63976;DHT22;50167;47.958;21.780;2023-04-03T08:20:28;8.51;51.85
63976;DHT22;50167;47.958;21.780;2023-04-03T08:22:55;8.46;51.77
63976;DHT22;50167;47.958;21.780;2023-04-03T08:25:22;8.38;51.69
63976;DHT22;50167;47.958;21.780;2023-04-03T08:27:48;8.28;52.92
63976;DHT22;50167;47.958;21.780;2023-04-03T08:30:15;8.36;52.61
63976;DHT22;50167;47.958;21.780;2023-04-03T08:32:41;8.36;51.70
63976;DHT22;50167;47.958;21.780;2023-04-03T08:35:11;8.33;53.24
63976;DHT22;50167;47.958;21.780;2023-04-03T08:37:39;8.36;52.40
63976;DHT22;50167;47.958;21.780;2023-04-03T08:40:10;8.42;52.59
63976;DHT22;50167;47.958;21.780;2023-04-03T08:45:52;8.53;52.05
63976;DHT22;50167;47.958;21.780;2023-04-03T08:48:40;8.62;51.67
63976;DHT22;50167;47.958;21.780;2023-04-03T08:51:09;8.57;52.40
63976;DHT22;50167;47.958;21.780;2023-04-03T08:53:36;8.59;52.05
63976;DHT22;50167;47.958;21.780;2023-04-03T08:56:08;8.67;51.03
63976;DHT22;50167;47.958;21.780;2023-04-03T08:59:04;8.66;51.35
63976;DHT22;50167;47.958;21.780;2023-04-03T09:01:35;8.67;52.66
63976;DHT22;50167;47.958;21.780;2023-04-03T09:04:12;8.74;52.77
63976;DHT22;50167;47.958;21.780;2023-04-03T09:06:40;9.03;49.42
63976;DHT22;50167;47.958;21.780;2023-04-03T09:09:35;8.91;51.45
63976;DHT22;50167;47.958;21.780;2023-04-03T09:15:14;9.08;51.33
63976;DHT22;50167;47.958;21.780;2023-04-03T09:17:57;9.14;51.58
63976;DHT22;50167;47.958;21.780;2023-04-03T09:26:16;9.03;50.60
63976;DHT22;50167;47.958;21.780;2023-04-03T09:28:42;8.97;51.17
63976;DHT22;50167;47.958;21.780;2023-04-03T09:31:23;9.07;50.29
63976;DHT22;50167;47.958;21.780;2023-04-03T09:33:54;9.00;50.91
63976;DHT22;50167;47.958;21.780;2023-04-03T09:39:17;9.24;49.92
63976;DHT22;50167;47.958;21.780;2023-04-03T09:44:38;9.38;49.82
63976;DHT22;50167;47.958;21.780;2023-04-03T09:47:25;9.46;48.94
63976;DHT22;50167;47.958;21.780;2023-04-03T09:52:43;9.60;48.80
63976;DHT22;50167;47.958;21.780;2023-04-03T09:55:25;9.58;50.33
63976;DHT22;50167;47.958;21.780;2023-04-03T09:58:02;9.74;50.03
63976;DHT22;50167;47.958;21.780;2023-04-03T10:00:38;9.79;49.27
63976;DHT22;50167;47.958;21.780;2023-04-03T10:03:29;9.83;49.14
63976;DHT22;50167;47.958;21.780;2023-04-03T10:05:56;9.94;47.18
63976;DHT22;50167;47.958;21.780;2023-04-03T10:08:33;10.11;46.81
63976;DHT22;50167;47.958;21.780;2023-04-03T10:11:13;10.01;47.95
63976;DHT22;50167;47.958;21.780;2023-04-03T10:13:57;10.04;48.39
63976;DHT22;50167;47.958;21.780;2023-04-03T10:16:35;9.98;47.63
63976;DHT22;50167;47.958;21.780;2023-04-03T10:19:39;9.79;49.09
63976;DHT22;50167;47.958;21.780;2023-04-03T10:22:31;9.90;48.00
63976;DHT22;50167;47.958;21.780;2023-04-03T10:28:00;9.92;48.08
63976;DHT22;50167;47.958;21.780;2023-04-03T10:40:02;9.94;48.50
63976;DHT22;50167;47.958;21.780;2023-04-03T10:42:50;9.98;48.80
63976;DHT22;50167;47.958;21.780;2023-04-03T10:45:53;10.04;47.41
63976;DHT22;50167;47.958;21.780;2023-04-03T10:49:39;10.06;47.93
63976;DHT22;50167;47.958;21.780;2023-04-03T10:51:37;10.15;46.73
63976;DHT22;50167;47.958;21.780;2023-04-03T10:57:06;9.87;48.52
63976;DHT22;50167;47.958;21.780;2023-04-03T11:02:32;9.90;47.60
63976;DHT22;50167;47.958;21.780;2023-04-03T11:05:13;9.89;48.06
63976;DHT22;50167;47.958;21.780;2023-04-03T11:07:40;9.86;48.66
63976;DHT22;50167;47.958;21.780;2023-04-03T11:10:18;9.93;48.19
63976;DHT22;50167;47.958;21.780;2023-04-03T11:13:10;10.08;48.46
63976;DHT22;50167;47.958;21.780;2023-04-03T11:15:32;10.23;48.17
63976;DHT22;50167;47.958;21.780;2023-04-03T11:18:22;10.38;46.77
63976;DHT22;50167;47.958;21.780;2023-04-03T11:21:21;10.27;46.90
63976;DHT22;50167;47.958;21.780;2023-04-03T11:23:48;10.24;46.12
63976;DHT22;50167;47.958;21.780;2023-04-03T11:26:19;10.18;45.82
63976;DHT22;50167;47.958;21.780;2023-04-03T11:29:00;10.07;45.86
63976;DHT22;50167;47.958;21.780;2023-04-03T11:36:50;9.87;47.77
63976;DHT22;50167;47.958;21.780;2023-04-03T11:39:32;9.86;47.71
63976;DHT22;50167;47.958;21.780;2023-04-03T11:42:17;9.79;47.79
63976;DHT22;50167;47.958;21.780;2023-04-03T11:44:46;9.76;48.71
63976;DHT22;50167;47.958;21.780;2023-04-03T11:50:05;9.72;48.83
63976;DHT22;50167;47.958;21.780;2023-04-03T12:00:52;9.58;48.69
63976;DHT22;50167;47.958;21.780;2023-04-03T12:08:44;9.69;49.17
63976;DHT22;50167;47.958;21.780;2023-04-03T12:11:19;9.90;47.05
63976;DHT22;50167;47.958;21.780;2023-04-03T12:19:32;9.89;46.14
63976;DHT22;50167;47.958;21.780;2023-04-03T12:24:34;9.50;48.12
63976;DHT22;50167;47.958;21.780;2023-04-03T12:27:25;9.63;48.01
63976;DHT22;50167;47.958;21.780;2023-04-03T12:35:29;10.92;44.35
63976;DHT22;50167;47.958;21.780;2023-04-03T12:44:35;12.36;42.10
63976;DHT22;50167;47.958;21.780;2023-04-03T12:47:02;12.41;40.43
63976;DHT22;50167;47.958;21.780;2023-04-03T12:49:42;12.54;39.85
63976;DHT22;50167;47.958;21.780;2023-04-03T12:54:54;12.80;40.83
63976;DHT22;50167;47.958;21.780;2023-04-03T12:57:28;13.03;39.31
63976;DHT22;50167;47.958;21.780;2023-04-03T12:59:57;12.92;40.31
63976;DHT22;50167;47.958;21.780;2023-04-03T13:02:30;13.13;40.79
63976;DHT22;50167;47.958;21.780;2023-04-03T13:05:04;13.55;39.09
63976;DHT22;50167;47.958;21.780;2023-04-03T13:07:35;13.74;37.55
63976;DHT22;50167;47.958;21.780;2023-04-03T13:12:54;13.40;38.60
63976;DHT22;50167;47.958;21.780;2023-04-03T13:15:25;13.51;39.01
63976;DHT22;50167;47.958;21.780;2023-04-03T13:17:53;13.91;37.33
63976;DHT22;50167;47.958;21.780;2023-04-03T13:20:30;13.99;37.10
63976;DHT22;50167;47.958;21.780;2023-04-03T13:23:04;14.02;36.17
63976;DHT22;50167;47.958;21.780;2023-04-03T13:25:34;13.84;36.79
63976;DHT22;50167;47.958;21.780;2023-04-03T13:28:04;13.82;36.62
63976;DHT22;50167;47.958;21.780;2023-04-03T13:30:35;13.79;37.04
63976;DHT22;50167;47.958;21.780;2023-04-03T13:33:21;13.92;36.18
63976;DHT22;50167;47.958;21.780;2023-04-03T13:35:48;13.64;36.99
63976;DHT22;50167;47.958;21.780;2023-04-03T13:38:29;13.41;38.28
63976;DHT22;50167;47.958;21.780;2023-04-03T13:41:04;13.64;37.31
63976;DHT22;50167;47.958;21.780;2023-04-03T13:43:35;13.71;36.64
63976;DHT22;50167;47.958;21.780;2023-04-03T13:46:22;13.64;36.64
63976;DHT22;50167;47.958;21.780;2023-04-03T13:48:50;13.60;36.94
63976;DHT22;50167;47.958;21.780;2023-04-03T13:51:24;13.71;37.01
63976;DHT22;50167;47.958;21.780;2023-04-03T13:54:01;13.75;35.97
63976;DHT22;50167;47.958;21.780;2023-04-03T13:56:38;13.54;36.19
63976;DHT22;50167;47.958;21.780;2023-04-03T14:01:47;13.40;37.94
63976;DHT22;50167;47.958;21.780;2023-04-03T14:04:27;13.61;36.03
63976;DHT22;50167;47.958;21.780;2023-04-03T14:06:55;13.47;37.06
63976;DHT22;50167;47.958;21.780;2023-04-03T14:09:24;13.31;36.91
63976;DHT22;50167;47.958;21.780;2023-04-03T14:11:58;13.29;36.72
63976;DHT22;50167;47.958;21.780;2023-04-03T14:14:31;13.35;36.22
63976;DHT22;50167;47.958;21.780;2023-04-03T14:17:02;13.12;36.88
63976;DHT22;50167;47.958;21.780;2023-04-03T14:19:34;12.95;37.87
63976;DHT22;50167;47.958;21.780;2023-04-03T14:22:14;13.13;37.69
63976;DHT22;50167;47.958;21.780;2023-04-03T14:24:39;13.43;36.01
63976;DHT22;50167;47.958;21.780;2023-04-03T14:27:17;13.19;36.27
63976;DHT22;50167;47.958;21.780;2023-04-03T14:29:43;12.87;36.65
63976;DHT22;50167;47.958;21.780;2023-04-03T14:32:17;12.55;38.00
63976;DHT22;50167;47.958;21.780;2023-04-03T14:34:44;12.47;37.59
63976;DHT22;50167;47.958;21.780;2023-04-03T14:37:19;11.89;38.66
63976;DHT22;50167;47.958;21.780;2023-04-03T14:39:45;11.14;40.63
63976;DHT22;50167;47.958;21.780;2023-04-03T14:42:19;10.96;41.11
63976;DHT22;50167;47.958;21.780;2023-04-03T14:44:46;11.15;40.85
63976;DHT22;50167;47.958;21.780;2023-04-03T14:47:16;11.72;39.18
63976;DHT22;50167;47.958;21.780;2023-04-03T14:49:43;11.72;38.69
63976;DHT22;50167;47.958;21.780;2023-04-03T14:52:29;11.82;38.19
63976;DHT22;50167;47.958;21.780;2023-04-03T14:54:57;11.64;37.87
63976;DHT22;50167;47.958;21.780;2023-04-03T14:57:25;11.24;38.56
63976;DHT22;50167;47.958;21.780;2023-04-03T14:59:52;11.00;38.82
63976;DHT22;50167;47.958;21.780;2023-04-03T15:02:31;10.44;39.64
63976;DHT22;50167;47.958;21.780;2023-04-03T15:05:00;9.92;40.83
63976;DHT22;50167;47.958;21.780;2023-04-03T15:07:32;9.69;41.28
63976;DHT22;50167;47.958;21.780;2023-04-03T15:10:25;9.24;42.33
63976;DHT22;50167;47.958;21.780;2023-04-03T15:12:30;8.84;43.42
63976;DHT22;50167;47.958;21.780;2023-04-03T15:14:57;8.59;43.82
63976;DHT22;50167;47.958;21.780;2023-04-03T15:17:23;8.18;44.90
63976;DHT22;50167;47.958;21.780;2023-04-03T15:19:49;8.05;45.84
63976;DHT22;50167;47.958;21.780;2023-04-03T15:22:19;7.83;46.21
63976;DHT22;50167;47.958;21.780;2023-04-03T15:24:46;7.66;46.18
63976;DHT22;50167;47.958;21.780;2023-04-03T15:27:13;7.57;46.22
63976;DHT22;50167;47.958;21.780;2023-04-03T15:29:42;7.31;47.31
63976;DHT22;50167;47.958;21.780;2023-04-03T15:32:10;7.26;46.99
63976;DHT22;50167;47.958;21.780;2023-04-03T15:34:37;7.22;46.66
63976;DHT22;50167;47.958;21.780;2023-04-03T15:37:04;6.91;47.27
63976;DHT22;50167;47.958;21.780;2023-04-03T15:39:31;6.73;48.35
63976;DHT22;50167;47.958;21.780;2023-04-03T15:41:58;6.70;47.77
63976;DHT22;50167;47.958;21.780;2023-04-03T15:44:26;6.60;47.83
63976;DHT22;50167;47.958;21.780;2023-04-03T15:46:52;6.60;47.83
63976;DHT22;50167;47.958;21.780;2023-04-03T15:49:19;6.67;47.01
63976;DHT22;50167;47.958;21.780;2023-04-03T15:51:47;6.50;47.79
63976;DHT22;50167;47.958;21.780;2023-04-03T15:54:13;6.52;47.79
63976;DHT22;50167;47.958;21.780;2023-04-03T15:56:39;6.50;47.56
63976;DHT22;50167;47.958;21.780;2023-04-03T15:59:05;6.29;48.30
63976;DHT22;50167;47.958;21.780;2023-04-03T16:01:32;6.17;48.81
63976;DHT22;50167;47.958;21.780;2023-04-03T16:03:59;5.98;48.53
63976;DHT22;50167;47.958;21.780;2023-04-03T16:06:25;5.84;49.04
63976;DHT22;50167;47.958;21.780;2023-04-03T16:08:54;5.74;49.02
63976;DHT22;50167;47.958;21.780;2023-04-03T16:11:22;5.60;49.68
63976;DHT22;50167;47.958;21.780;2023-04-03T16:13:48;5.42;50.51
63976;DHT22;50167;47.958;21.780;2023-04-03T16:16:14;5.49;50.66
63976;DHT22;50167;47.958;21.780;2023-04-03T16:18:40;5.46;50.70
63976;DHT22;50167;47.958;21.780;2023-04-03T16:21:08;5.39;50.95
63976;DHT22;50167;47.958;21.780;2023-04-03T16:23:35;5.43;50.65
63976;DHT22;50167;47.958;21.780;2023-04-03T16:26:01;5.42;50.90
63976;DHT22;50167;47.958;21.780;2023-04-03T16:28:27;5.59;50.19
63976;DHT22;50167;47.958;21.780;2023-04-03T16:30:53;5.65;49.58
63976;DHT22;50167;47.958;21.780;2023-04-03T16:33:20;5.60;49.53
63976;DHT22;50167;47.958;21.780;2023-04-03T16:35:50;5.45;49.47
63976;DHT22;50167;47.958;21.780;2023-04-03T16:38:16;5.19;50.26
63976;DHT22;50167;47.958;21.780;2023-04-03T16:40:49;5.56;49.63
63976;DHT22;50167;47.958;21.780;2023-04-03T16:43:15;5.24;50.02
63976;DHT22;50167;47.958;21.780;2023-04-03T16:45:42;5.43;49.76
63976;DHT22;50167;47.958;21.780;2023-04-03T16:48:08;5.08;50.47
63976;DHT22;50167;47.958;21.780;2023-04-03T16:50:35;5.56;49.44
63976;DHT22;50167;47.958;21.780;2023-04-03T16:53:01;5.15;50.19
63976;DHT22;50167;47.958;21.780;2023-04-03T16:55:29;5.56;49.54
63976;DHT22;50167;47.958;21.780;2023-04-03T16:57:55;5.07;50.15
63976;DHT22;50167;47.958;21.780;2023-04-03T17:00:21;5.39;50.00
63976;DHT22;50167;47.958;21.780;2023-04-03T17:02:48;5.36;49.34
63976;DHT22;50167;47.958;21.780;2023-04-03T17:05:14;4.93;51.12
63976;DHT22;50167;47.958;21.780;2023-04-03T17:07:41;5.31;49.70
63976;DHT22;50167;47.958;21.780;2023-04-03T17:10:08;5.03;50.33
63976;DHT22;50167;47.958;21.780;2023-04-03T17:12:34;5.38;49.10
63976;DHT22;50167;47.958;21.780;2023-04-03T17:15:01;5.25;49.86
63976;DHT22;50167;47.958;21.780;2023-04-03T17:17:27;5.12;50.21
63976;DHT22;50167;47.958;21.780;2023-04-03T17:19:54;5.28;49.70
63976;DHT22;50167;47.958;21.780;2023-04-03T17:22:21;4.95;50.06
63976;DHT22;50167;47.958;21.780;2023-04-03T17:24:47;5.56;49.25
63976;DHT22;50167;47.958;21.780;2023-04-03T17:27:13;5.12;49.42
63976;DHT22;50167;47.958;21.780;2023-04-03T17:29:39;5.16;50.00
63976;DHT22;50167;47.958;21.780;2023-04-03T17:32:05;5.00;49.80
63976;DHT22;50167;47.958;21.780;2023-04-03T17:34:32;5.15;49.91
63976;DHT22;50167;47.958;21.780;2023-04-03T17:36:58;5.14;49.59